createdAt,value
2023-04-01T00:01:55.000Z,0.93
2023-04-01T00:04:23.001Z,0.73
2023-04-01T00:06:50.610Z,1.00
2023-04-01T00:09:18.160Z,1.00
2023-04-01T00:11:46.512Z,0.60
2023-04-01T00:14:15.403Z,0.75
2023-04-01T00:16:43.076Z,0.77
2023-04-01T00:19:10.690Z,0.65
2023-04-01T00:21:38.282Z,0.50
2023-04-01T00:24:05.944Z,0.88
2023-04-01T00:26:33.525Z,0.60
2023-04-01T00:29:01.514Z,0.63
2023-04-01T00:31:30.945Z,1.55
2023-04-01T00:33:58.681Z,0.63
2023-04-01T00:36:26.317Z,0.68
2023-04-01T00:38:54.028Z,0.75
2023-04-01T00:41:22.555Z,0.60
2023-04-01T00:43:51.037Z,0.50
2023-04-01T00:46:18.618Z,0.85
2023-04-01T00:48:49.388Z,0.52
2023-04-01T00:51:19.436Z,0.80
2023-04-01T00:53:48.698Z,0.50
2023-04-01T00:56:17.552Z,0.80
2023-04-01T00:58:46.569Z,0.65
2023-04-01T01:01:14.405Z,0.70
2023-04-01T01:03:42.256Z,0.30
2023-04-01T01:06:13.299Z,0.75
2023-04-01T01:08:53.801Z,0.80
2023-04-01T01:11:25.236Z,0.60
2023-04-01T01:13:58.483Z,0.90
2023-04-01T01:16:27.832Z,0.57
2023-04-01T01:18:59.470Z,0.50
2023-04-01T01:21:44.136Z,0.63
2023-04-01T01:24:29.642Z,0.63
2023-04-01T01:27:01.448Z,0.55
2023-04-01T01:29:50.240Z,0.50
2023-04-01T01:32:28.270Z,0.68
2023-04-01T01:34:58.116Z,0.80
2023-04-01T01:37:29.397Z,0.60
2023-04-01T01:39:58.870Z,0.63
2023-04-01T01:42:27.698Z,0.60
2023-04-01T01:44:57.346Z,0.43
2023-04-01T01:47:25.453Z,0.60
2023-04-01T01:49:53.951Z,0.50
2023-04-01T01:52:21.838Z,0.45
2023-04-01T01:54:51.782Z,0.70
2023-04-01T01:57:22.238Z,0.77
2023-04-01T01:59:54.400Z,0.63
2023-04-01T02:02:26.722Z,0.68
2023-04-01T02:04:54.783Z,0.40
2023-04-01T02:07:25.879Z,0.68
2023-04-01T02:09:55.729Z,0.65
2023-04-01T02:12:24.470Z,0.38
2023-04-01T02:14:54.046Z,0.60
2023-04-01T02:17:22.451Z,0.30
2023-04-01T02:19:51.989Z,0.55
2023-04-01T02:22:22.137Z,0.40
2023-04-01T02:24:50.775Z,0.40
2023-04-01T02:27:19.984Z,1.00
2023-04-01T02:29:48.548Z,0.50
2023-04-01T02:32:16.701Z,0.50
2023-04-01T02:34:44.774Z,0.57
2023-04-01T02:37:13.424Z,0.40
2023-04-01T02:39:41.161Z,0.52
2023-04-01T02:42:09.004Z,0.70
2023-04-01T02:44:38.208Z,0.30
2023-04-01T02:47:05.827Z,0.45
2023-04-01T02:49:33.473Z,0.38
2023-04-01T02:52:01.549Z,0.63
2023-04-01T02:54:29.155Z,0.80
2023-04-01T02:56:57.258Z,0.57
2023-04-01T02:59:24.869Z,0.70
2023-04-01T03:01:53.853Z,0.50
2023-04-01T03:04:21.466Z,0.50
2023-04-01T03:06:49.042Z,0.50
2023-04-01T03:09:17.052Z,0.40
2023-04-01T03:11:44.655Z,0.60
2023-04-01T03:14:12.257Z,0.40
2023-04-01T03:16:39.891Z,0.50
2023-04-01T03:19:08.871Z,0.60
2023-04-01T03:21:36.501Z,0.40
2023-04-01T03:24:04.127Z,0.63
2023-04-01T03:26:31.722Z,0.55
2023-04-01T03:28:59.963Z,0.30
2023-04-01T03:31:27.743Z,0.50
2023-04-01T03:33:58.123Z,0.20
2023-04-01T03:36:27.168Z,0.30
2023-04-01T03:38:54.855Z,0.70
2023-04-01T03:41:32.563Z,0.30
2023-04-01T03:44:01.062Z,0.73
2023-04-01T03:46:28.689Z,0.52
2023-04-01T03:48:56.374Z,0.40
2023-04-01T03:51:24.181Z,0.30
2023-04-01T03:53:55.350Z,0.43
2023-04-01T03:56:22.870Z,0.50
2023-04-01T03:58:51.387Z,0.40
2023-04-01T04:01:20.969Z,0.40
2023-04-01T04:03:51.105Z,0.40
2023-04-01T04:06:20.052Z,0.57
2023-04-01T04:08:48.852Z,0.60
2023-04-01T04:11:17.862Z,0.30
2023-04-01T04:13:45.781Z,0.50
2023-04-01T04:16:13.729Z,0.50
2023-04-01T04:18:46.199Z,0.57
2023-04-01T04:21:14.641Z,0.47
2023-04-01T04:23:43.227Z,0.77
2023-04-01T04:26:11.905Z,0.40
2023-04-01T04:28:41.539Z,0.40
2023-04-01T04:31:09.224Z,0.38
2023-04-01T04:33:37.520Z,0.40
2023-04-01T04:36:06.120Z,0.50
2023-04-01T04:38:33.949Z,0.50
2023-04-01T04:41:01.565Z,0.45
2023-04-01T04:43:29.361Z,0.50
2023-04-01T04:45:59.371Z,0.50
2023-04-01T04:48:26.965Z,0.40
2023-04-01T04:50:54.632Z,0.63
2023-04-01T04:53:26.227Z,0.40
2023-04-01T04:55:54.277Z,0.40
2023-04-01T04:58:38.477Z,0.57
2023-04-01T05:01:11.764Z,0.52
2023-04-01T05:03:40.623Z,0.40
2023-04-01T05:06:09.383Z,0.40
2023-04-01T05:08:38.383Z,0.30
2023-04-01T05:11:06.302Z,0.45
2023-04-01T05:13:35.007Z,0.40
2023-04-01T05:16:02.736Z,0.40
2023-04-01T05:18:31.676Z,0.50
2023-04-01T05:20:59.322Z,0.20
2023-04-01T05:23:26.911Z,0.40
2023-04-01T05:25:54.671Z,0.50
2023-04-01T05:28:22.981Z,0.28
2023-04-01T05:30:50.939Z,0.40
2023-04-01T05:33:24.021Z,0.85
2023-04-01T05:35:53.391Z,0.32
2023-04-01T05:38:21.598Z,0.50
2023-04-01T05:40:49.229Z,0.20
2023-04-01T05:43:16.986Z,0.50
2023-04-01T05:45:48.218Z,0.28
2023-04-01T05:48:16.365Z,0.25
2023-04-01T05:50:44.132Z,0.20
2023-04-01T05:53:14.079Z,0.40
2023-04-01T05:55:44.272Z,0.22
2023-04-01T05:58:12.167Z,0.30
2023-04-01T06:00:46.570Z,0.35
2023-04-01T06:03:16.868Z,0.22
2023-04-01T06:05:45.352Z,0.20
2023-04-01T06:08:17.625Z,0.10
2023-04-01T06:10:52.493Z,0.60
2023-04-01T06:13:24.517Z,0.38
2023-04-01T06:15:55.147Z,0.73
2023-04-01T06:18:33.890Z,0.20
2023-04-01T06:21:06.315Z,0.28
2023-04-01T06:23:41.311Z,0.52
2023-04-01T06:26:26.709Z,0.50
2023-04-01T06:29:03.560Z,0.30
2023-04-01T06:31:40.945Z,0.60
2023-04-01T06:34:16.570Z,0.28
2023-04-01T06:37:01.945Z,0.20
2023-04-01T06:39:38.096Z,0.20
2023-04-01T06:42:33.788Z,0.30
2023-04-01T06:45:12.839Z,0.30
2023-04-01T06:48:21.045Z,0.30
2023-04-01T06:51:11.254Z,0.35
2023-04-01T06:54:12.742Z,0.32
2023-04-01T06:57:03.074Z,0.30
2023-04-01T06:59:32.127Z,0.28
2023-04-01T07:02:02.738Z,0.50
2023-04-01T07:04:32.655Z,0.30
2023-04-01T07:07:01.212Z,0.50
2023-04-01T07:09:33.358Z,0.40
2023-04-01T07:12:45.190Z,0.50
2023-04-01T07:15:44.080Z,0.45
2023-04-01T07:18:14.460Z,0.95
2023-04-01T07:20:42.096Z,1.02
2023-04-01T07:23:13.464Z,0.93
2023-04-01T07:26:00.420Z,0.47
2023-04-01T07:28:31.802Z,0.60
2023-04-01T07:31:09.550Z,0.70
2023-04-01T07:33:41.432Z,0.70
2023-04-01T07:36:12.903Z,0.80
2023-04-01T07:38:47.236Z,0.73
2023-04-01T07:41:24.659Z,1.25
2023-04-01T07:43:59.011Z,1.50
2023-04-01T07:46:47.536Z,1.20
2023-04-01T07:49:18.052Z,1.45
2023-04-01T07:51:52.385Z,1.13
2023-04-01T07:54:24.731Z,1.40
2023-04-01T07:56:57.389Z,1.33
2023-04-01T07:59:42.445Z,1.58
2023-04-01T08:02:44.101Z,1.33
2023-04-01T08:05:18.152Z,1.45
2023-04-01T08:07:48.711Z,1.08
2023-04-01T08:10:53.772Z,1.48
2023-04-01T08:13:46.124Z,1.50
2023-04-01T08:16:28.412Z,1.45
2023-04-01T08:19:04.968Z,1.33
2023-04-01T08:21:36.949Z,1.60
2023-04-01T08:24:12.487Z,1.73
2023-04-01T08:26:46.061Z,1.50
2023-04-01T08:29:16.117Z,1.17
2023-04-01T08:31:49.684Z,1.38
2023-04-01T08:34:19.307Z,1.35
2023-04-01T08:36:49.195Z,1.40
2023-04-01T08:39:20.029Z,1.63
2023-04-01T08:41:58.890Z,1.40
2023-04-01T08:45:04.941Z,1.58
2023-04-01T08:47:44.292Z,1.50
2023-04-01T08:50:32.913Z,1.40
2023-04-01T08:53:27.804Z,1.65
2023-04-01T08:56:03.395Z,1.10
2023-04-01T08:58:47.565Z,1.40
2023-04-01T09:01:28.282Z,1.20
2023-04-01T09:04:07.132Z,1.02
2023-04-01T09:06:37.737Z,1.30
2023-04-01T09:09:18.889Z,1.55
2023-04-01T09:12:01.241Z,1.30
2023-04-01T09:14:44.955Z,1.17
2023-04-01T09:17:26.138Z,1.38
2023-04-01T09:20:01.568Z,1.00
2023-04-01T09:22:39.631Z,0.80
2023-04-01T09:25:18.227Z,1.17
2023-04-01T09:27:47.002Z,1.45
2023-04-01T09:30:31.634Z,1.10
2023-04-01T09:33:32.307Z,1.20
2023-04-01T09:36:08.004Z,0.95
2023-04-01T09:38:40.984Z,1.20
2023-04-01T09:41:12.140Z,0.55
2023-04-01T09:44:02.723Z,0.40
2023-04-01T09:46:39.909Z,0.80
2023-04-01T09:49:26.128Z,0.50
2023-04-01T09:52:02.240Z,0.70
2023-04-01T09:54:38.356Z,0.63
2023-04-01T09:57:32.088Z,0.85
2023-04-01T10:00:17.902Z,0.30
2023-04-01T10:03:19.913Z,0.50
2023-04-01T10:05:55.993Z,0.80
2023-04-01T10:08:38.786Z,0.50
2023-04-01T10:11:14.507Z,0.88
2023-04-01T10:13:57.847Z,0.63
2023-04-01T10:16:46.872Z,0.90
2023-04-01T10:19:25.474Z,0.20
2023-04-01T10:22:06.873Z,0.80
2023-04-01T10:24:47.544Z,0.50
2023-04-01T10:27:23.306Z,0.40
2023-04-01T10:30:24.360Z,0.50
2023-04-01T10:33:21.207Z,0.55
2023-04-01T10:36:07.289Z,0.22
2023-04-01T10:38:56.102Z,0.30
2023-04-01T10:41:39.684Z,0.38
2023-04-01T10:44:53.638Z,0.20
2023-04-01T10:47:54.971Z,0.30
2023-04-01T10:50:27.277Z,0.57
2023-04-01T10:53:21.880Z,0.30
2023-04-01T10:56:19.042Z,0.40
2023-04-01T10:59:42.895Z,0.52
2023-04-01T11:02:43.931Z,0.30
2023-04-01T11:05:48.607Z,0.20
2023-04-01T11:08:37.718Z,0.32
2023-04-01T11:11:22.598Z,0.30
2023-04-01T11:14:05.825Z,0.40
2023-04-01T11:16:49.354Z,0.47
2023-04-01T11:19:43.626Z,0.45
2023-04-01T11:22:29.047Z,0.40
2023-04-01T11:25:04.936Z,0.45
2023-04-01T11:28:00.778Z,0.32
2023-04-01T11:30:34.594Z,0.10
2023-04-01T11:33:04.520Z,0.63
2023-04-01T11:35:42.112Z,0.52
2023-04-01T11:38:16.998Z,0.30
2023-04-01T11:40:47.895Z,0.40
2023-04-01T11:43:39.172Z,0.40
2023-04-01T11:46:28.075Z,0.22
2023-04-01T11:49:02.452Z,0.40
2023-04-01T11:52:02.171Z,0.32
2023-04-01T11:54:34.981Z,0.30
2023-04-01T11:57:09.031Z,0.32
2023-04-01T11:59:54.523Z,0.40
2023-04-01T12:02:27.705Z,0.40
2023-04-01T12:05:00.247Z,0.35
2023-04-01T12:07:35.361Z,0.25
2023-04-01T12:10:07.843Z,0.38
2023-04-01T12:12:47.746Z,0.30
2023-04-01T12:15:25.219Z,0.38
2023-04-01T12:17:58.720Z,0.40
2023-04-01T12:20:34.438Z,0.60
2023-04-01T12:23:09.238Z,0.20
2023-04-01T12:25:45.171Z,0.38
2023-04-01T12:28:17.593Z,0.60
2023-04-01T12:30:48.127Z,0.20
2023-04-01T12:33:26.611Z,0.38
2023-04-01T12:35:58.526Z,0.28
2023-04-01T12:38:30.964Z,0.40
2023-04-01T12:41:13.410Z,0.30
2023-04-01T12:43:58.647Z,0.43
2023-04-01T12:46:28.367Z,0.55
2023-04-01T12:49:07.788Z,0.30
2023-04-01T12:51:40.179Z,0.30
2023-04-01T12:54:20.568Z,0.22
2023-04-01T12:56:52.225Z,0.50
2023-04-01T12:59:32.539Z,0.30
2023-04-01T13:02:02.866Z,0.45
2023-04-01T13:04:40.777Z,0.15
2023-04-01T13:07:17.966Z,0.20
2023-04-01T13:09:52.034Z,0.17
2023-04-01T13:12:37.614Z,0.30
2023-04-01T13:15:16.096Z,0.20
2023-04-01T13:17:47.359Z,0.30
2023-04-01T13:20:21.866Z,0.30
2023-04-01T13:22:53.903Z,0.43
2023-04-01T13:25:28.851Z,0.30
2023-04-01T13:27:58.722Z,0.30
2023-04-01T13:30:27.947Z,0.45
2023-04-01T13:32:59.786Z,0.30
2023-04-01T13:35:41.314Z,0.32
2023-04-01T13:38:19.783Z,0.30
2023-04-01T13:41:02.413Z,0.30
2023-04-01T13:43:33.754Z,0.30
2023-04-01T13:46:14.148Z,0.40
2023-04-01T13:48:54.553Z,0.20
2023-04-01T13:51:35.356Z,0.30
2023-04-01T13:54:10.124Z,0.20
2023-04-01T13:56:42.058Z,0.38
2023-04-01T13:59:21.660Z,0.50
2023-04-01T14:01:53.795Z,0.22
2023-04-01T14:04:38.994Z,0.20
2023-04-01T14:07:14.519Z,0.50
2023-04-01T14:09:54.990Z,0.50
2023-04-01T14:12:29.569Z,0.20
2023-04-01T14:15:05.582Z,0.45
2023-04-01T14:17:47.261Z,0.40
2023-04-01T14:20:24.311Z,0.30
2023-04-01T14:23:00.109Z,0.50
2023-04-01T14:25:37.464Z,0.40
2023-04-01T14:28:10.492Z,0.60
2023-04-01T14:30:43.074Z,0.40
2023-04-01T14:33:21.020Z,0.40
2023-04-01T14:35:51.930Z,0.40
2023-04-01T14:38:29.872Z,0.32
2023-04-01T14:41:00.835Z,0.65
2023-04-01T14:43:38.818Z,0.43
2023-04-01T14:46:14.124Z,0.25
2023-04-01T14:48:51.409Z,0.43
2023-04-01T14:51:20.931Z,0.65
2023-04-01T14:53:58.458Z,0.73
2023-04-01T14:56:39.280Z,0.35
2023-04-01T14:59:10.714Z,0.40
2023-04-01T15:01:43.588Z,0.47
2023-04-01T15:04:26.202Z,0.63
2023-04-01T15:07:03.377Z,0.47
2023-04-01T15:09:37.839Z,0.30
2023-04-01T15:12:10.390Z,0.47
2023-04-01T15:14:42.367Z,0.40
2023-04-01T15:17:18.939Z,0.40
2023-04-01T15:19:56.641Z,0.65
2023-04-01T15:22:45.234Z,0.30
2023-04-01T15:25:25.721Z,0.47
2023-04-01T15:27:57.488Z,0.30
2023-04-01T15:30:33.101Z,0.30
2023-04-01T15:33:09.643Z,0.50
2023-04-01T15:35:41.363Z,0.25
2023-04-01T15:38:12.783Z,0.40
2023-04-01T15:40:44.751Z,0.35
2023-04-01T15:43:23.165Z,0.25
2023-04-01T15:45:53.977Z,0.20
2023-04-01T15:48:31.334Z,0.30
2023-04-01T15:51:04.766Z,0.45
2023-04-01T15:53:47.676Z,0.20
2023-04-01T15:56:23.843Z,0.30
2023-04-01T15:58:57.225Z,0.20
2023-04-01T16:01:29.281Z,0.40
2023-04-01T16:03:59.946Z,0.30
2023-04-01T16:06:43.974Z,0.25
2023-04-01T16:09:32.498Z,0.25
2023-04-01T16:12:06.336Z,0.43
2023-04-01T16:14:39.176Z,0.40
2023-04-01T16:17:14.367Z,0.35
2023-04-01T16:19:50.156Z,0.38
2023-04-01T16:22:21.396Z,0.45
2023-04-01T16:24:52.689Z,0.20
2023-04-01T16:27:26.264Z,0.20
2023-04-01T16:29:56.230Z,0.20
2023-04-01T16:32:29.780Z,0.43
2023-04-01T16:35:00.411Z,0.32
2023-04-01T16:37:33.847Z,0.22
2023-04-01T16:40:06.192Z,0.45
2023-04-01T16:42:42.039Z,0.60
2023-04-01T16:45:18.870Z,0.25
2023-04-01T16:47:49.834Z,0.13
2023-04-01T16:50:21.506Z,0.73
2023-04-01T16:53:00.532Z,0.25
2023-04-01T16:55:36.894Z,0.50
2023-04-01T16:58:08.033Z,0.40
2023-04-01T17:00:40.216Z,0.28
2023-04-01T17:03:13.009Z,0.30
2023-04-01T17:05:44.319Z,0.55
2023-04-01T17:08:18.453Z,0.25
2023-04-01T17:10:50.365Z,0.20
2023-04-01T17:13:36.164Z,0.28
2023-04-01T17:16:08.386Z,0.20
2023-04-01T17:18:40.162Z,0.20
2023-04-01T17:21:09.926Z,0.30
2023-04-01T17:23:39.769Z,0.40
2023-04-01T17:26:19.533Z,0.40
2023-04-01T17:28:51.449Z,0.22
2023-04-01T17:31:32.872Z,0.47
2023-04-01T17:34:05.768Z,0.20
2023-04-01T17:36:39.497Z,0.32
2023-04-01T17:39:16.996Z,0.30
2023-04-01T17:41:48.993Z,0.50
2023-04-01T17:44:23.149Z,0.25
2023-04-01T17:47:02.293Z,0.40
2023-04-01T17:49:33.215Z,0.40
2023-04-01T17:52:02.807Z,0.47
2023-04-01T17:54:33.684Z,0.50
2023-04-01T17:57:06.458Z,0.50
2023-04-01T17:59:37.811Z,0.30
2023-04-01T18:02:12.438Z,0.50
2023-04-01T18:04:45.902Z,0.68
2023-04-01T18:07:21.032Z,0.50
2023-04-01T18:09:52.762Z,0.40
2023-04-01T18:12:23.514Z,0.47
2023-04-01T18:15:03.381Z,0.68
2023-04-01T18:17:42.169Z,0.70
2023-04-01T18:20:18.605Z,0.80
2023-04-01T18:22:47.983Z,0.80
2023-04-01T18:25:18.834Z,0.70
2023-04-01T18:27:47.840Z,0.43
2023-04-01T18:30:18.940Z,0.95
2023-04-01T18:32:48.305Z,0.75
2023-04-01T18:35:21.746Z,0.75
2023-04-01T18:37:55.077Z,0.60
2023-04-01T18:40:25.293Z,0.75
2023-04-01T18:42:57.944Z,0.65
2023-04-01T18:45:29.529Z,1.10
2023-04-01T18:48:00.897Z,0.43
2023-04-01T18:50:30.506Z,0.68
2023-04-01T18:53:00.053Z,0.70
2023-04-01T18:55:46.191Z,0.70
2023-04-01T18:58:19.018Z,0.38
2023-04-01T19:00:50.598Z,0.60
2023-04-01T19:03:22.458Z,0.65
2023-04-01T19:05:52.394Z,0.57
2023-04-01T19:08:21.860Z,0.40
2023-04-01T19:10:53.826Z,0.30
2023-04-01T19:13:24.993Z,0.50
2023-04-01T19:15:59.229Z,0.60
2023-04-01T19:18:41.062Z,0.77
2023-04-01T19:21:11.813Z,0.40
2023-04-01T19:24:09.622Z,0.52
2023-04-01T19:26:41.224Z,0.90
2023-04-01T19:29:14.586Z,0.88
2023-04-01T19:31:52.330Z,0.65
2023-04-01T19:34:24.847Z,0.43
2023-04-01T19:36:54.262Z,0.40
2023-04-01T19:39:29.775Z,0.60
2023-04-01T19:42:02.428Z,0.22
2023-04-01T19:44:35.732Z,0.45
2023-04-01T19:47:11.376Z,0.70
2023-04-01T19:49:43.085Z,0.65
2023-04-01T19:52:16.290Z,1.00
2023-04-01T19:54:48.105Z,0.50
2023-04-01T19:57:20.656Z,0.63
2023-04-01T19:59:51.425Z,0.88
2023-04-01T20:02:34.882Z,0.93
2023-04-01T20:05:06.359Z,0.77
2023-04-01T20:07:37.452Z,0.80
2023-04-01T20:10:11.001Z,1.08
2023-04-01T20:12:44.353Z,0.70
2023-04-01T20:15:23.017Z,0.80
2023-04-01T20:17:54.019Z,1.00
2023-04-01T20:20:23.271Z,1.38
2023-04-01T20:22:58.250Z,0.75
2023-04-01T20:25:27.647Z,0.85
2023-04-01T20:27:57.458Z,0.80
2023-04-01T20:30:52.067Z,0.57
2023-04-01T20:33:37.309Z,0.82
2023-04-01T20:36:16.591Z,0.60
2023-04-01T20:39:01.827Z,0.68
2023-04-01T20:41:32.904Z,0.38
2023-04-01T20:44:05.342Z,0.68
2023-04-01T20:46:36.481Z,0.63
2023-04-01T20:49:27.944Z,0.57
2023-04-01T20:52:01.897Z,0.50
2023-04-01T20:54:38.966Z,0.50
2023-04-01T20:57:08.712Z,0.77
2023-04-01T20:59:46.906Z,0.80
2023-04-01T21:02:22.033Z,1.08
2023-04-01T21:04:55.633Z,0.60
2023-04-01T21:07:26.632Z,0.45
2023-04-01T21:09:57.656Z,0.93
2023-04-01T21:12:30.680Z,0.57
2023-04-01T21:15:05.220Z,0.70
2023-04-01T21:17:37.911Z,0.52
2023-04-01T21:20:20.421Z,0.82
2023-04-01T21:22:58.637Z,0.70
2023-04-01T21:25:31.622Z,0.93
2023-04-01T21:28:17.213Z,0.77
2023-04-01T21:30:50.072Z,0.68
2023-04-01T21:33:25.411Z,0.70
2023-04-01T21:35:57.044Z,0.47
2023-04-01T21:38:32.525Z,0.35
2023-04-01T21:41:07.538Z,0.80
2023-04-01T21:43:47.003Z,0.68
2023-04-01T21:46:28.199Z,0.88
2023-04-01T21:49:05.760Z,0.57
2023-04-01T21:51:45.202Z,0.38
2023-04-01T21:54:31.318Z,0.32
2023-04-01T21:57:16.800Z,0.52
2023-04-01T22:00:02.161Z,0.30
2023-04-01T22:02:46.474Z,0.40
2023-04-01T22:05:19.036Z,0.40
2023-04-01T22:07:48.610Z,0.77
2023-04-01T22:10:20.423Z,0.63
2023-04-01T22:12:49.490Z,0.60
2023-04-01T22:15:21.095Z,0.85
2023-04-01T22:17:54.202Z,0.45
2023-04-01T22:20:25.907Z,0.80
2023-04-01T22:23:08.430Z,0.77
2023-04-01T22:25:39.504Z,0.63
2023-04-01T22:28:08.715Z,0.60
2023-04-01T22:30:41.352Z,0.60
2023-04-01T22:33:13.354Z,0.65
2023-04-01T22:35:44.243Z,0.65
2023-04-01T22:38:18.258Z,0.47
2023-04-01T22:40:49.759Z,0.93
2023-04-01T22:43:20.418Z,0.90
2023-04-01T22:45:58.426Z,0.90
2023-04-01T22:48:29.748Z,0.68
2023-04-01T22:51:00.467Z,0.65
2023-04-01T22:53:36.278Z,0.65
2023-04-01T22:56:07.017Z,0.50
2023-04-01T22:58:36.575Z,0.20
2023-04-01T23:01:07.164Z,0.68
2023-04-01T23:03:38.012Z,0.40
2023-04-01T23:06:06.267Z,0.93
2023-04-01T23:08:53.719Z,0.40
2023-04-01T23:11:22.963Z,0.73
2023-04-01T23:13:53.669Z,0.40
2023-04-01T23:16:24.071Z,0.65
2023-04-01T23:18:55.224Z,0.47
2023-04-01T23:21:25.451Z,1.27
2023-04-01T23:23:57.598Z,0.90
2023-04-01T23:26:27.033Z,0.40
2023-04-01T23:28:55.334Z,0.57
2023-04-01T23:31:34.401Z,0.77
2023-04-01T23:34:04.389Z,0.77
2023-04-01T23:36:32.821Z,0.50
2023-04-01T23:39:03.418Z,0.47
2023-04-01T23:41:33.086Z,0.57
2023-04-01T23:44:02.493Z,0.60
2023-04-01T23:46:31.200Z,0.40
2023-04-01T23:48:58.825Z,0.68
2023-04-01T23:51:29.891Z,0.98
2023-04-01T23:53:59.140Z,0.63
2023-04-01T23:56:35.971Z,0.47
2023-04-01T23:59:04.091Z,1.00
